Time;durP1;ratioP1;P1;durP2;ratioP2;P2;SDS_P1;SDS_P2;PMS_P1;PMS_P2;Temp;Humidity;BMP_temperature;BMP_pressure;BME280_temperature;BME280_humidity;BME280_pressure;Samples;Min_cycle;Max_cycle;Signal;HPM_P1;HPM_P2
2023/07/02 00:00:05;;;;;;;;;;;20.50;99.90;20.50;99355.00;;;;347162;28;95618;-90
2023/07/02 00:00:17;;;;;;;;;;;20.50;99.90;20.50;99358.00;;;;345190;28;82393;-90
2023/07/02 00:00:29;;;;;;;;;;;20.40;99.90;20.50;99357.00;;;;345546;28;97304;-90
2023/07/02 00:00:41;;;;;;;;;;;20.40;99.90;20.50;99354.00;;;;346024;28;84063;-90
2023/07/02 00:00:54;;;;;;;;;;;20.40;99.90;20.50;99354.00;;;;345492;28;95411;-90
2023/07/02 00:01:06;;;;;;;;;;;20.40;99.90;20.60;99358.00;;;;349002;27;83366;-90
2023/07/02 00:01:18;;;;;;;;;;;20.40;99.90;20.60;99358.00;;;;344397;28;95470;-90
2023/07/02 00:01:30;;;;;;;;;;;20.40;99.90;20.60;99352.00;;;;347999;28;83587;-90
2023/07/02 00:01:42;;;;;;;;;;;20.40;99.90;20.60;99356.00;;;;347318;28;96743;-90
2023/07/02 00:01:54;;;;;;;;;;;20.40;99.90;20.50;99354.00;;;;346657;28;83305;-91
2023/07/02 00:02:07;;;;;;;;;;;20.40;99.90;20.50;99357.00;;;;345780;28;95150;-90
2023/07/02 00:02:19;;;;;;;;;;;20.40;99.90;20.50;99356.00;;;;346819;28;83307;-90
2023/07/02 00:02:31;;;;;;;;;;;20.40;99.90;20.60;99354.00;;;;347119;28;96690;-91
2023/07/02 00:02:43;;;;;;;;;;;20.40;99.90;20.60;99361.00;;;;348160;28;83457;-90
2023/07/02 00:02:56;;;;;;;;;;;20.40;99.90;20.60;99356.00;;;;348677;27;95286;-91
2023/07/02 00:03:09;;;;;;;;;;;20.40;99.90;20.60;99359.00;;;;347821;28;82627;-90
2023/07/02 00:03:24;;;;;;;;;;;20.40;99.90;20.60;99362.00;;;;347347;28;95377;-91
2023/07/02 00:03:39;;;;;;;;;;;20.40;99.90;20.60;99356.00;;;;348031;28;83442;-90
2023/07/02 00:03:52;;;;;;;;;;;20.40;99.90;20.60;99352.00;;;;345837;28;94500;-90
2023/07/02 00:04:04;;;;;;;;;;;20.40;99.90;20.60;99359.00;;;;346519;28;82693;-90
2023/07/02 00:04:16;;;;;;;;;;;20.40;99.90;20.60;99360.00;;;;345799;28;95587;-90
2023/07/02 00:04:29;;;;;;;;;;;20.40;99.90;20.50;99362.00;;;;346620;28;83441;-90
2023/07/02 00:04:42;;;;;;;;;;;20.40;99.90;20.60;99362.00;;;;344361;28;93949;-90
2023/07/02 00:04:54;;;;;;;;;;;20.40;99.90;20.60;99367.00;;;;346463;28;83297;-90
2023/07/02 00:05:07;;;;;;;;;;;20.40;99.90;20.60;99360.00;;;;348347;27;96689;-91
2023/07/02 00:05:19;;;;;;;;;;;20.40;99.90;20.60;99363.00;;;;347936;28;82354;-90
2023/07/02 00:05:31;;;;;;;;;;;20.40;99.90;20.70;99360.00;;;;345618;28;94484;-90
2023/07/02 00:05:43;;;;;;;;;;;20.40;99.90;20.50;99356.00;;;;346412;28;82469;-90
2023/07/02 00:05:56;;;;;;;;;;;20.40;99.90;20.60;99358.00;;;;345499;28;96172;-90
2023/07/02 00:06:08;;;;;;;;;;;20.40;99.90;20.60;99356.00;;;;346491;28;83434;-91
2023/07/02 00:06:19;;;;;;;;;;;20.40;99.90;20.70;99358.00;;;;348455;27;95865;-91
2023/07/02 00:06:33;;;;;;;;;;;20.40;99.90;20.70;99361.00;;;;346318;28;83459;-91
2023/07/02 00:06:46;;;;;;;;;;;20.40;99.90;20.60;99361.00;;;;347068;28;97366;-90
2023/07/02 00:06:58;;;;;;;;;;;20.40;99.90;20.60;99353.00;;;;346394;28;82358;-90
2023/07/02 00:07:10;;;;;;;;;;;20.40;99.90;20.70;99357.00;;;;346959;28;95475;-90
2023/07/02 00:07:22;;;;;;;;;;;20.50;99.90;20.60;99358.00;;;;347792;28;83368;-90
2023/07/02 00:07:35;;;;;;;;;;;20.50;99.90;20.60;99368.00;;;;345654;28;96344;-90
2023/07/02 00:07:48;;;;;;;;;;;20.40;99.90;20.60;99361.00;;;;347674;28;83402;-90
2023/07/02 00:08:00;;;;;;;;;;;20.40;99.90;20.60;99365.00;;;;345574;28;96949;-91
2023/07/02 00:08:12;;;;;;;;;;;20.40;99.90;20.60;99357.00;;;;346399;28;82371;-91
2023/07/02 00:08:24;;;;;;;;;;;20.40;99.90;20.60;99352.00;;;;348613;27;94977;-90
2023/07/02 00:08:36;;;;;;;;;;;20.40;99.90;20.60;99361.00;;;;349591;27;82452;-91
2023/07/02 00:08:48;;;;;;;;;;;20.40;99.90;20.60;99356.00;;;;344603;28;93633;-90
2023/07/02 00:09:00;;;;;;;;;;;20.40;99.90;20.60;99365.00;;;;348199;28;82428;-90
2023/07/02 00:09:12;;;;;;;;;;;20.40;99.90;20.60;99355.00;;;;350169;27;93431;-90
2023/07/02 00:09:24;;;;;;;;;;;20.40;99.90;20.60;99360.00;;;;348228;28;83352;-90
2023/07/02 00:09:36;;;;;;;;;;;20.40;99.90;20.60;99360.00;;;;347001;28;94643;-90
2023/07/02 00:09:48;;;;;;;;;;;20.40;99.90;20.60;99361.00;;;;347718;28;82528;-91
2023/07/02 00:10:00;;;;;;;;;;;20.40;99.90;20.70;99358.00;;;;345641;28;95125;-91
2023/07/02 00:10:11;;;;;;;;;;;20.40;99.90;20.70;99366.00;;;;349083;27;82554;-90
2023/07/02 00:10:23;;;;;;;;;;;20.40;99.90;20.70;99360.00;;;;349843;27;96723;-90
2023/07/02 00:10:35;;;;;;;;;;;20.40;99.90;20.60;99364.00;;;;346357;28;82326;-91
2023/07/02 00:10:47;;;;;;;;;;;20.50;99.90;20.50;99365.00;;;;345576;28;93791;-90
2023/07/02 00:11:00;;;;;;;;;;;20.40;99.90;20.50;99362.00;;;;346651;28;82420;-91
2023/07/02 00:11:15;;;;;;;;;;;20.40;99.90;20.50;99361.00;;;;345561;28;96521;-89
2023/07/02 00:11:27;;;;;;;;;;;20.50;99.90;20.50;99365.00;;;;348970;27;82544;-90
2023/07/02 00:11:39;;;;;;;;;;;20.40;99.90;20.40;99361.00;;;;348824;27;95334;-90
2023/07/02 00:11:51;;;;;;;;;;;20.40;99.90;20.50;99359.00;;;;346628;28;82506;-89
2023/07/02 00:12:03;;;;;;;;;;;20.40;99.90;20.60;99368.00;;;;344427;28;96867;-90
2023/07/02 00:12:15;;;;;;;;;;;20.40;99.90;20.50;99360.00;;;;346651;28;83593;-90
2023/07/02 00:12:27;;;;;;;;;;;20.40;99.90;20.50;99362.00;;;;345872;28;96404;-90
2023/07/02 00:12:39;;;;;;;;;;;20.40;99.90;20.50;99366.00;;;;348078;27;82530;-90
2023/07/02 00:12:51;;;;;;;;;;;20.40;99.90;20.40;99362.00;;;;348537;27;94325;-91
2023/07/02 00:13:02;;;;;;;;;;;20.40;99.90;20.40;99362.00;;;;347690;28;83552;-90
2023/07/02 00:13:14;;;;;;;;;;;20.40;99.90;20.50;99367.00;;;;344399;28;95214;-90
2023/07/02 00:13:26;;;;;;;;;;;20.40;99.90;20.60;99367.00;;;;345131;28;82584;-90
2023/07/02 00:13:39;;;;;;;;;;;20.40;99.90;20.50;99367.00;;;;347402;28;95465;-91
2023/07/02 00:13:51;;;;;;;;;;;20.40;99.90;20.50;99364.00;;;;349410;27;83511;-90
2023/07/02 00:14:03;;;;;;;;;;;20.40;99.90;20.40;99370.00;;;;348755;27;95252;-90
2023/07/02 00:14:15;;;;;;;;;;;20.40;99.90;20.40;99361.00;;;;346220;28;83598;-90
2023/07/02 00:14:27;;;;;;;;;;;20.40;99.90;20.40;99368.00;;;;347023;28;95135;-90
2023/07/02 00:14:39;;;;;;;;;;;20.40;99.90;20.40;99360.00;;;;348928;27;83441;-90
2023/07/02 00:14:52;;;;;;;;;;;20.40;99.90;20.50;99364.00;;;;346822;28;96222;-90
2023/07/02 00:15:05;;;;;;;;;;;20.40;99.90;20.60;99371.00;;;;347754;28;82583;-91
2023/07/02 00:15:17;;;;;;;;;;;20.40;99.90;20.50;99368.00;;;;344112;28;96421;-90
2023/07/02 00:15:29;;;;;;;;;;;20.40;99.90;20.40;99359.00;;;;346382;28;83430;-90
2023/07/02 00:15:41;;;;;;;;;;;20.30;99.90;20.50;99365.00;;;;348728;27;97159;-90
2023/07/02 00:15:53;;;;;;;;;;;20.40;99.90;20.40;99358.00;;;;346713;28;82385;-90
2023/07/02 00:16:05;;;;;;;;;;;20.30;99.90;20.40;99364.00;;;;345931;28;97161;-91
2023/07/02 00:16:17;;;;;;;;;;;20.30;99.90;20.40;99364.00;;;;346729;28;82519;-90
2023/07/02 00:16:29;;;;;;;;;;;20.30;99.90;20.40;99361.00;;;;347295;28;96906;-90
2023/07/02 00:16:45;;;;;;;;;;;20.30;99.90;20.50;99362.00;;;;348013;28;83328;-90
2023/07/02 00:16:57;;;;;;;;;;;20.30;99.90;20.40;99365.00;;;;344077;28;97216;-90
2023/07/02 00:17:12;;;;;;;;;;;20.30;99.90;20.40;99357.00;;;;346403;28;82565;-91
2023/07/02 00:17:25;;;;;;;;;;;20.30;99.90;20.40;99365.00;;;;345664;28;95193;-90
2023/07/02 00:17:39;;;;;;;;;;;20.30;99.90;20.30;99367.00;;;;347700;28;83432;-91
2023/07/02 00:17:51;;;;;;;;;;;20.30;99.90;20.40;99367.00;;;;345719;28;96796;-91
2023/07/02 00:20:21;;;;;;;;;;;20.30;99.90;20.40;99367.00;;;;294395;28;98380;-90
2023/07/02 00:20:37;;;;;;;;;;;20.40;99.90;20.50;99362.00;;;;333768;29;83621;-90
2023/07/02 00:20:49;;;;;;;;;;;20.30;99.90;20.50;99371.00;;;;330951;29;96611;-90
2023/07/02 00:21:05;;;;;;;;;;;20.30;99.90;20.50;99369.00;;;;332804;29;83508;-91
2023/07/02 00:21:16;;;;;;;;;;;20.30;99.90;20.40;99361.00;;;;333382;29;96798;-90
2023/07/02 00:21:28;;;;;;;;;;;20.30;99.90;20.40;99363.00;;;;331658;29;83449;-89
2023/07/02 00:21:40;;;;;;;;;;;20.30;99.90;20.40;99360.00;;;;333378;29;95354;-91
2023/07/02 00:21:53;;;;;;;;;;;20.30;99.90;20.40;99368.00;;;;332885;29;82427;-91
2023/07/02 00:22:05;;;;;;;;;;;20.30;99.90;20.30;99358.00;;;;332207;29;95025;-91
2023/07/02 00:22:17;;;;;;;;;;;20.30;99.90;20.30;99363.00;;;;334299;29;83429;-90
2023/07/02 00:22:30;;;;;;;;;;;20.30;99.90;20.30;99367.00;;;;333405;29;96921;-90
2023/07/02 00:22:45;;;;;;;;;;;20.30;99.90;20.50;99359.00;;;;335447;29;83510;-89
2023/07/02 00:22:57;;;;;;;;;;;20.30;99.90;20.50;99360.00;;;;333404;29;97446;-91
2023/07/02 00:23:09;;;;;;;;;;;20.30;99.90;20.50;99363.00;;;;332864;29;83394;-90
2023/07/02 00:23:21;;;;;;;;;;;20.30;99.90;20.40;99364.00;;;;333457;29;96458;-90
2023/07/02 00:23:33;;;;;;;;;;;20.30;99.90;20.40;99357.00;;;;334315;29;83288;-90
2023/07/02 00:23:45;;;;;;;;;;;20.30;99.90;20.40;99356.00;;;;332188;29;95330;-90
2023/07/02 00:23:57;;;;;;;;;;;20.30;99.90;20.30;99371.00;;;;335359;28;83559;-90
2023/07/02 00:24:09;;;;;;;;;;;20.30;99.90;20.30;99370.00;;;;333402;29;96629;-91
2023/07/02 00:24:21;;;;;;;;;;;20.30;99.90;20.30;99363.00;;;;332834;29;83417;-90
2023/07/02 00:24:33;;;;;;;;;;;20.30;99.90;20.30;99370.00;;;;335923;28;97266;-90
2023/07/02 00:24:45;;;;;;;;;;;20.30;99.90;20.30;99366.00;;;;335448;29;83424;-90
2023/07/02 00:24:56;;;;;;;;;;;20.30;99.90;20.30;99366.00;;;;333224;29;95505;-91
2023/07/02 00:25:08;;;;;;;;;;;20.30;99.90;20.30;99364.00;;;;333048;29;83377;-90
2023/07/02 00:25:20;;;;;;;;;;;20.30;99.90;20.30;99368.00;;;;332647;29;96576;-91
2023/07/02 00:25:32;;;;;;;;;;;20.30;99.90;20.30;99368.00;;;;333351;29;83383;-90
2023/07/02 00:25:44;;;;;;;;;;;20.30;99.90;20.40;99365.00;;;;332524;29;97044;-90
2023/07/02 00:25:57;;;;;;;;;;;20.30;99.90;20.40;99370.00;;;;333529;29;82567;-90
2023/07/02 00:26:09;;;;;;;;;;;20.30;99.90;20.40;99368.00;;;;332302;29;96491;-90
2023/07/02 00:26:24;;;;;;;;;;;20.30;99.90;20.30;99372.00;;;;332858;29;83428;-91
2023/07/02 00:26:37;;;;;;;;;;;20.30;99.90;20.30;99371.00;;;;333425;29;95486;-89
2023/07/02 00:26:49;;;;;;;;;;;20.20;99.90;20.30;99371.00;;;;334200;29;83592;-91
2023/07/02 00:27:01;;;;;;;;;;;20.20;99.90;20.30;99365.00;;;;332057;29;96926;-90
2023/07/02 00:27:13;;;;;;;;;;;20.20;99.90;20.30;99370.00;;;;331631;29;83496;-90
2023/07/02 00:27:25;;;;;;;;;;;20.20;99.90;20.30;99372.00;;;;332218;29;96186;-91
2023/07/02 00:27:38;;;;;;;;;;;20.20;99.90;20.30;99368.00;;;;335432;29;82527;-91
2023/07/02 00:27:49;;;;;;;;;;;20.20;99.90;20.30;99371.00;;;;330838;29;96474;-91
2023/07/02 00:28:01;;;;;;;;;;;20.20;99.90;20.30;99366.00;;;;334053;29;83599;-91
2023/07/02 00:28:13;;;;;;;;;;;20.20;99.90;20.30;99369.00;;;;334702;29;96725;-90
2023/07/02 00:28:25;;;;;;;;;;;20.30;99.90;20.30;99371.00;;;;335442;29;83321;-90
2023/07/02 00:28:37;;;;;;;;;;;20.20;99.90;20.30;99366.00;;;;333472;29;95508;-90
2023/07/02 00:28:49;;;;;;;;;;;20.20;99.90;20.20;99365.00;;;;332909;29;82524;-90
2023/07/02 00:29:01;;;;;;;;;;;20.20;99.90;20.20;99366.00;;;;333284;29;95433;-90
2023/07/02 00:29:13;;;;;;;;;;;20.20;99.90;20.20;99366.00;;;;335431;29;82485;-90
2023/07/02 00:29:24;;;;;;;;;;;20.20;99.90;20.30;99370.00;;;;332096;29;96058;-90
2023/07/02 00:29:36;;;;;;;;;;;20.20;99.90;20.30;99377.00;;;;331641;29;82554;-91
2023/07/02 00:29:48;;;;;;;;;;;20.20;99.90;20.30;99363.00;;;;336098;28;95546;-90
2023/07/02 00:30:01;;;;;;;;;;;20.20;99.90;20.30;99368.00;;;;334173;29;83260;-91
2023/07/02 00:30:14;;;;;;;;;;;20.20;99.90;20.30;99371.00;;;;332443;29;95374;-90
2023/07/02 00:30:26;;;;;;;;;;;20.20;99.90;20.30;99366.00;;;;335830;29;83534;-91
2023/07/02 00:30:37;;;;;;;;;;;20.20;99.90;20.40;99371.00;;;;330908;29;95475;-91
2023/07/02 00:30:49;;;;;;;;;;;20.20;99.90;20.40;99373.00;;;;333104;29;83401;-90
2023/07/02 00:31:02;;;;;;;;;;;20.20;99.90;20.30;99370.00;;;;336368;28;97531;-91
2023/07/02 00:31:14;;;;;;;;;;;20.20;99.90;20.30;99375.00;;;;334389;29;83476;-91
2023/07/02 00:31:26;;;;;;;;;;;20.20;99.90;20.30;99375.00;;;;334913;29;96545;-91
2023/07/02 00:31:38;;;;;;;;;;;20.20;99.90;20.20;99362.00;;;;333363;29;82318;-90
2023/07/02 00:31:50;;;;;;;;;;;20.20;99.90;20.20;99362.00;;;;331171;29;95374;-90
2023/07/02 00:32:02;;;;;;;;;;;20.20;99.90;20.30;99366.00;;;;334631;29;82520;-91
2023/07/02 00:32:16;;;;;;;;;;;20.20;99.90;20.30;99363.00;;;;331551;29;95575;-91
2023/07/02 00:32:29;;;;;;;;;;;20.20;99.90;20.30;99370.00;;;;333286;29;82500;-91
2023/07/02 00:32:41;;;;;;;;;;;20.20;99.90;20.30;99375.00;;;;335106;29;96970;-91
2023/07/02 00:32:53;;;;;;;;;;;20.20;99.90;20.30;99371.00;;;;334790;29;82532;-91
2023/07/02 00:33:05;;;;;;;;;;;20.20;99.90;20.30;99372.00;;;;330017;29;97604;-90
2023/07/02 00:33:18;;;;;;;;;;;20.20;99.90;20.30;99369.00;;;;333548;29;83425;-91
2023/07/02 00:33:31;;;;;;;;;;;20.20;99.90;20.30;99367.00;;;;332398;29;95426;-90
2023/07/02 00:33:43;;;;;;;;;;;20.20;99.90;20.30;99365.00;;;;334512;29;82506;-91
2023/07/02 00:33:55;;;;;;;;;;;20.20;99.90;20.30;99370.00;;;;333642;29;96633;-91
2023/07/02 00:34:07;;;;;;;;;;;20.20;99.90;20.20;99365.00;;;;331713;29;83389;-91
2023/07/02 00:34:19;;;;;;;;;;;20.20;99.90;20.20;99367.00;;;;333398;29;94675;-90
2023/07/02 00:34:31;;;;;;;;;;;20.20;99.90;20.30;99371.00;;;;333171;29;83506;-91
2023/07/02 00:34:42;;;;;;;;;;;20.20;99.90;20.30;99372.00;;;;333504;29;96659;-90
2023/07/02 00:34:54;;;;;;;;;;;20.20;99.90;20.30;99367.00;;;;336943;28;83405;-91
2023/07/02 00:35:06;;;;;;;;;;;20.20;99.90;20.30;99379.00;;;;333499;29;96545;-91
2023/07/02 00:35:19;;;;;;;;;;;20.20;99.90;20.30;99371.00;;;;333308;29;83458;-91
2023/07/02 00:35:31;;;;;;;;;;;20.20;99.90;20.30;99359.00;;;;332445;29;95488;-91
2023/07/02 00:35:42;;;;;;;;;;;20.20;99.90;20.30;99371.00;;;;333316;29;83274;-91
2023/07/02 00:35:54;;;;;;;;;;;20.20;99.90;20.40;99369.00;;;;333443;29;95631;-91
2023/07/02 00:36:06;;;;;;;;;;;20.20;99.90;20.40;99367.00;;;;333271;29;82355;-91
2023/07/02 00:36:18;;;;;;;;;;;20.20;99.90;20.50;99374.00;;;;333554;29;96678;-90
2023/07/02 00:36:30;;;;;;;;;;;20.20;99.90;20.50;99363.00;;;;335655;29;82505;-91
2023/07/02 00:36:42;;;;;;;;;;;20.30;99.90;20.60;99369.00;;;;331071;29;96030;-91
2023/07/02 00:36:54;;;;;;;;;;;20.30;99.90;20.60;99369.00;;;;333150;29;82548;-91
2023/07/02 00:37:06;;;;;;;;;;;20.30;99.90;20.60;99361.00;;;;333463;29;97737;-91
2023/07/02 00:37:17;;;;;;;;;;;20.30;99.90;20.70;99372.00;;;;333116;29;83461;-91
2023/07/02 00:37:29;;;;;;;;;;;20.30;99.90;20.60;99370.00;;;;332488;29;95296;-91
2023/07/02 00:37:41;;;;;;;;;;;20.30;99.90;20.50;99357.00;;;;334381;29;82481;-91
2023/07/02 00:37:53;;;;;;;;;;;20.30;99.90;20.50;99372.00;;;;332347;29;95996;-91
2023/07/02 00:38:05;;;;;;;;;;;20.30;99.90;20.50;99364.00;;;;334402;29;83426;-91
2023/07/02 00:38:16;;;;;;;;;;;20.30;99.90;20.50;99363.00;;;;332131;29;97430;-91
2023/07/02 00:38:28;;;;;;;;;;;20.30;99.90;20.40;99373.00;;;;333298;29;83434;-92
2023/07/02 00:38:48;;;;;;;;;;;20.30;99.90;20.40;99365.00;;;;332372;29;95733;-91
2023/07/02 00:39:00;;;;;;;;;;;20.30;99.90;20.40;99372.00;;;;331597;29;83486;-91
2023/07/02 00:39:12;;;;;;;;;;;20.30;99.90;20.40;99366.00;;;;333917;29;97999;-91
2023/07/02 00:39:24;;;;;;;;;;;20.30;99.90;20.30;99368.00;;;;334500;29;83146;-91
2023/07/02 00:39:36;;;;;;;;;;;20.30;99.90;20.30;99363.00;;;;332326;29;96494;-91
2023/07/02 00:39:48;;;;;;;;;;;20.30;99.90;20.40;99371.00;;;;334273;29;83406;-91
2023/07/02 00:39:59;;;;;;;;;;;20.30;99.90;20.40;99368.00;;;;332160;29;95538;-91
2023/07/02 00:40:12;;;;;;;;;;;20.30;99.90;20.40;99367.00;;;;333398;29;82591;-91
2023/07/02 00:40:24;;;;;;;;;;;20.30;99.90;20.40;99361.00;;;;333599;29;96506;-91
2023/07/02 00:40:37;;;;;;;;;;;20.30;99.90;20.40;99368.00;;;;334481;29;82528;-91
2023/07/02 00:40:48;;;;;;;;;;;20.30;99.90;20.40;99363.00;;;;333715;29;96407;-90
2023/07/02 00:41:01;;;;;;;;;;;20.30;99.90;20.30;99368.00;;;;332096;29;82500;-91
2023/07/02 00:41:13;;;;;;;;;;;20.30;99.90;20.30;99370.00;;;;330945;29;97905;-91
2023/07/02 00:41:25;;;;;;;;;;;20.30;99.90;20.30;99365.00;;;;333259;29;82438;-91
2023/07/02 00:41:37;;;;;;;;;;;20.30;99.90;20.30;99369.00;;;;332394;29;97283;-91
2023/07/02 00:41:49;;;;;;;;;;;20.30;99.90;20.30;99367.00;;;;334478;29;82457;-91
2023/07/02 00:42:02;;;;;;;;;;;20.30;99.90;20.30;99367.00;;;;331338;29;95489;-91
2023/07/02 00:42:16;;;;;;;;;;;20.20;99.90;20.50;99363.00;;;;333287;29;83384;-91
2023/07/02 00:42:29;;;;;;;;;;;20.30;99.90;20.50;99364.00;;;;335134;29;96678;-91
2023/07/02 00:42:43;;;;;;;;;;;20.30;99.90;20.50;99366.00;;;;333522;29;83446;-91
2023/07/02 00:42:56;;;;;;;;;;;20.30;99.90;20.50;99370.00;;;;332839;29;93057;-91
2023/07/02 00:43:12;;;;;;;;;;;20.30;99.90;20.50;99366.00;;;;333102;29;83088;-91
2023/07/02 00:43:24;;;;;;;;;;;20.30;99.90;20.50;99367.00;;;;332054;29;98032;-91
2023/07/02 00:43:36;;;;;;;;;;;20.30;99.90;20.40;99368.00;;;;335529;29;82541;-90
2023/07/02 00:43:48;;;;;;;;;;;20.30;99.90;20.50;99367.00;;;;333509;29;95500;-92
2023/07/02 00:43:59;;;;;;;;;;;20.30;99.90;20.50;99370.00;;;;333038;29;82527;-91
2023/07/02 00:44:14;;;;;;;;;;;20.30;99.90;20.50;99370.00;;;;329693;29;95204;-91
2023/07/02 00:44:26;;;;;;;;;;;20.30;99.90;20.50;99369.00;;;;333324;29;83331;-92
2023/07/02 00:44:40;;;;;;;;;;;20.30;99.90;20.50;99366.00;;;;333680;29;96722;-91
2023/07/02 00:44:56;;;;;;;;;;;20.30;99.90;20.50;99363.00;;;;332064;29;82530;-91
2023/07/02 00:45:09;;;;;;;;;;;20.30;99.90;20.50;99370.00;;;;333598;29;96862;-91
2023/07/02 00:45:21;;;;;;;;;;;20.30;99.90;20.40;99369.00;;;;334397;29;82521;-91
2023/07/02 00:45:33;;;;;;;;;;;20.30;99.90;20.40;99365.00;;;;331074;29;96302;-91
2023/07/02 00:45:45;;;;;;;;;;;20.30;99.90;20.40;99373.00;;;;333271;29;82555;-91
2023/07/02 00:45:57;;;;;;;;;;;20.30;99.90;20.40;99368.00;;;;331403;29;95644;-91
2023/07/02 00:46:22;;;;;;;;;;;20.30;99.90;20.50;99372.00;;;;333341;29;82655;-92
2023/07/02 00:46:34;;;;;;;;;;;20.30;99.90;20.40;99368.00;;;;334013;29;95847;-91
2023/07/02 00:46:47;;;;;;;;;;;20.30;99.90;20.30;99371.00;;;;332051;29;83415;-91
2023/07/02 00:46:58;;;;;;;;;;;20.30;99.90;20.30;99368.00;;;;332006;29;95910;-90
2023/07/02 00:47:11;;;;;;;;;;;20.30;99.90;20.30;99368.00;;;;335368;29;83527;-91
2023/07/02 00:47:23;;;;;;;;;;;20.30;99.90;20.50;99365.00;;;;330795;29;95430;-91
2023/07/02 00:47:36;;;;;;;;;;;20.30;99.90;20.50;99369.00;;;;332876;29;83307;-91
2023/07/02 00:47:48;;;;;;;;;;;20.30;99.90;20.60;99367.00;;;;331991;29;97458;-91
2023/07/02 00:47:59;;;;;;;;;;;20.30;99.90;20.60;99366.00;;;;332850;29;83948;-91
2023/07/02 00:48:12;;;;;;;;;;;20.30;99.90;20.60;99367.00;;;;332044;29;96109;-91
2023/07/02 00:48:24;;;;;;;;;;;20.40;99.90;20.60;99366.00;;;;332941;29;82491;-91
2023/07/02 00:48:35;;;;;;;;;;;20.40;99.90;20.50;99363.00;;;;331954;29;95999;-91
2023/07/02 00:48:51;;;;;;;;;;;20.40;99.90;20.50;99362.00;;;;334187;29;83512;-91
2023/07/02 00:49:04;;;;;;;;;;;20.40;99.90;20.60;99362.00;;;;330766;29;95391;-91
2023/07/02 00:49:16;;;;;;;;;;;20.40;99.90;20.50;99367.00;;;;332736;29;83559;-91
2023/07/02 00:49:27;;;;;;;;;;;20.40;99.90;20.50;99359.00;;;;333331;29;96613;-91
2023/07/02 00:49:39;;;;;;;;;;;20.40;99.90;20.50;99370.00;;;;333061;29;83411;-91
2023/07/02 00:49:51;;;;;;;;;;;20.40;99.90;20.50;99366.00;;;;330828;29;96668;-91
2023/07/02 00:50:04;;;;;;;;;;;20.40;99.90;20.50;99367.00;;;;331695;29;83170;-91
2023/07/02 00:50:15;;;;;;;;;;;20.40;99.90;20.50;99362.00;;;;330634;29;95861;-91
2023/07/02 00:50:27;;;;;;;;;;;20.40;99.90;20.40;99372.00;;;;330203;29;82446;-91
2023/07/02 00:50:39;;;;;;;;;;;20.40;99.90;20.50;99366.00;;;;332118;29;96358;-91
2023/07/02 00:50:51;;;;;;;;;;;20.40;99.90;20.60;99369.00;;;;331525;29;83472;-91
2023/07/02 00:51:03;;;;;;;;;;;20.40;99.90;20.50;99368.00;;;;333317;29;95782;-91
2023/07/02 00:51:17;;;;;;;;;;;20.40;99.90;20.60;99357.00;;;;330113;29;83491;-91
2023/07/02 00:51:29;;;;;;;;;;;20.40;99.90;20.60;99365.00;;;;330795;29;95529;-91
2023/07/02 00:51:41;;;;;;;;;;;20.40;99.90;20.60;99364.00;;;;334078;29;83353;-91
2023/07/02 00:51:53;;;;;;;;;;;20.40;99.90;20.50;99367.00;;;;331977;29;97260;-91
2023/07/02 00:52:05;;;;;;;;;;;20.40;99.90;20.60;99360.00;;;;332882;29;83681;-91
2023/07/02 00:52:20;;;;;;;;;;;20.40;99.90;20.60;99352.00;;;;330778;29;95266;-91
2023/07/02 00:52:31;;;;;;;;;;;20.40;99.90;20.60;99358.00;;;;332719;29;82358;-91
2023/07/02 00:52:43;;;;;;;;;;;20.40;99.90;20.60;99355.00;;;;333415;29;95551;-91
2023/07/02 00:52:55;;;;;;;;;;;20.40;99.90;20.60;99354.00;;;;332831;29;83354;-91
2023/07/02 00:53:07;;;;;;;;;;;20.40;99.90;20.60;99356.00;;;;333409;29;96411;-91
2023/07/02 00:53:19;;;;;;;;;;;20.40;99.90;20.60;99359.00;;;;332767;29;83573;-91
2023/07/02 00:53:32;;;;;;;;;;;20.40;99.90;20.60;99356.00;;;;330850;29;93331;-91
2023/07/02 00:53:44;;;;;;;;;;;20.40;99.90;20.70;99357.00;;;;332837;29;83393;-91
2023/07/02 00:53:57;;;;;;;;;;;20.40;99.90;20.70;99360.00;;;;334544;29;97298;-91
2023/07/02 00:54:09;;;;;;;;;;;20.40;99.90;20.60;99360.00;;;;332662;29;83533;-91
2023/07/02 00:54:21;;;;;;;;;;;20.40;99.90;20.50;99359.00;;;;332054;29;96714;-91
2023/07/02 00:54:32;;;;;;;;;;;20.40;99.90;20.50;99358.00;;;;332960;29;83361;-91
2023/07/02 00:54:44;;;;;;;;;;;20.40;99.90;20.60;99362.00;;;;333445;29;96553;-91
2023/07/02 00:54:56;;;;;;;;;;;20.40;99.90;20.60;99353.00;;;;331592;29;82568;-91
2023/07/02 00:55:08;;;;;;;;;;;20.40;99.90;20.50;99358.00;;;;334704;29;96674;-91
2023/07/02 00:55:20;;;;;;;;;;;20.40;99.90;20.50;99363.00;;;;334256;29;83787;-90
2023/07/02 00:55:32;;;;;;;;;;;20.40;99.90;20.60;99360.00;;;;330974;29;96364;-92
2023/07/02 00:55:44;;;;;;;;;;;20.40;99.90;20.60;99362.00;;;;333059;29;82516;-91
2023/07/02 00:55:56;;;;;;;;;;;20.40;99.90;20.60;99363.00;;;;332121;29;97283;-90
2023/07/02 00:56:08;;;;;;;;;;;20.40;99.90;20.50;99360.00;;;;334225;29;83469;-91
2023/07/02 00:56:20;;;;;;;;;;;20.40;99.90;20.60;99364.00;;;;334566;29;96534;-91
2023/07/02 00:56:32;;;;;;;;;;;20.40;99.90;20.60;99365.00;;;;336683;28;82500;-91
2023/07/02 00:56:45;;;;;;;;;;;20.40;99.90;20.50;99361.00;;;;334645;29;96561;-91
2023/07/02 00:57:02;;;;;;;;;;;20.40;99.90;20.60;99362.00;;;;335423;29;83427;-91
2023/07/02 00:57:14;;;;;;;;;;;20.40;99.90;20.60;99359.00;;;;334555;29;96349;-91
2023/07/02 00:57:29;;;;;;;;;;;20.40;99.90;20.60;99363.00;;;;332803;29;83471;-91
2023/07/02 00:57:46;;;;;;;;;;;20.40;99.90;20.60;99359.00;;;;333416;29;95518;-91
2023/07/02 00:57:58;;;;;;;;;;;20.40;99.90;20.60;99370.00;;;;331429;29;83545;-91
2023/07/02 00:58:10;;;;;;;;;;;20.40;99.90;20.60;99360.00;;;;333233;29;97776;-91
2023/07/02 00:58:22;;;;;;;;;;;20.50;99.90;20.60;99365.00;;;;334089;29;82537;-91
2023/07/02 00:58:34;;;;;;;;;;;20.40;99.90;20.60;99358.00;;;;332019;29;96402;-91
2023/07/02 00:58:48;;;;;;;;;;;20.40;99.90;20.70;99360.00;;;;334186;29;82509;-91
2023/07/02 00:59:00;;;;;;;;;;;20.50;99.90;20.60;99365.00;;;;334643;29;96208;-91
2023/07/02 00:59:12;;;;;;;;;;;20.40;99.90;20.70;99369.00;;;;335389;28;82627;-91
2023/07/02 00:59:24;;;;;;;;;;;20.50;99.90;20.60;99358.00;;;;334624;29;97387;-91
2023/07/02 00:59:38;;;;;;;;;;;20.40;99.90;20.50;99365.00;;;;335470;29;82438;-91
2023/07/02 00:59:51;;;;;;;;;;;20.50;99.90;20.60;99363.00;;;;335984;28;96682;-92
2023/07/02 01:00:04;;;;;;;;;;;20.50;99.90;20.60;99366.00;;;;332796;29;83403;-91
2023/07/02 01:00:16;;;;;;;;;;;20.40;99.90;20.60;99356.00;;;;332044;29;97582;-91
2023/07/02 01:00:28;;;;;;;;;;;20.40;99.90;20.50;99354.00;;;;332675;29;82630;-91
2023/07/02 01:00:40;;;;;;;;;;;20.50;99.90;20.50;99365.00;;;;331928;29;96784;-91
2023/07/02 01:00:52;;;;;;;;;;;20.50;99.90;20.50;99362.00;;;;334177;29;83345;-91
2023/07/02 01:01:04;;;;;;;;;;;20.40;99.90;20.50;99366.00;;;;333344;29;95618;-91
2023/07/02 01:01:18;;;;;;;;;;;20.40;99.90;20.60;99360.00;;;;332741;29;83507;-91
2023/07/02 01:01:31;;;;;;;;;;;20.40;99.90;20.60;99363.00;;;;331963;29;95644;-90
2023/07/02 01:01:43;;;;;;;;;;;20.40;99.90;20.60;99356.00;;;;335316;29;83443;-90
2023/07/02 01:01:56;;;;;;;;;;;20.40;99.90;20.70;99361.00;;;;334281;29;95644;-91
2023/07/02 01:02:08;;;;;;;;;;;20.40;99.90;20.60;99364.00;;;;334115;29;83337;-91
2023/07/02 01:02:20;;;;;;;;;;;20.40;99.90;20.60;99361.00;;;;334544;28;97895;-91
2023/07/02 01:02:32;;;;;;;;;;;20.40;99.90;20.50;99359.00;;;;334183;29;82546;-90
2023/07/02 01:02:57;;;;;;;;;;;20.50;99.90;20.60;99364.00;;;;334708;29;95637;-91
2023/07/02 01:03:08;;;;;;;;;;;20.40;99.90;20.60;99360.00;;;;332728;28;83530;-92
2023/07/02 01:03:20;;;;;;;;;;;20.50;99.90;20.60;99360.00;;;;334744;29;95683;-91
2023/07/02 01:03:32;;;;;;;;;;;20.50;99.90;20.50;99359.00;;;;334182;29;83424;-91
2023/07/02 01:03:54;;;;;;;;;;;20.40;99.90;20.50;99360.00;;;;332094;29;96289;-91
2023/07/02 01:04:07;;;;;;;;;;;20.40;99.90;20.50;99355.00;;;;334193;29;83381;-91